メインページ
METAR-TAF:

METAR-TAF

空港 :

ラロトンガ国際空港

ラロトンガ島, クック諸島

緯度: 21-12S, 経度: 159-49W, 海抜: 7m

現時点の気象観測

当レポートは17分前の06:00(UTC)に作成
東/南東の風 4kt
気温 24°C
湿度 89%
気圧 1014 hPa
視程10km以上
高度600ftの雲は散在している
高度4000ftの千切れ雲あり
高度10000ftの曇り
小霧雨

METAR: NCRG 130600Z 11004KT 9999 -DZ SCT006 BKN040 OVC100 24/22 Q1014

時間: 20:17 (06:17 UTC)

予報

当レポートは1時間0分前の05:17(UTC)に作成
予報は13日の 06時(UTC)から 14日の 06時(UTC)まで有効
東/北東の風 10kt
視程10km以上
高度1600ftの雲は散在している
高度4000ftの千切れ雲あり
高度10000ftの曇り
弱いにわか雨
確率 30% :
13日の 06時(UTC)から 13日の 12時(UTC)まで一時的に
視程: 5000m
高度1500ftの千切れ雲あり
にわか雨
確率 40% :
13日の 12時(UTC)から 14日の 06時(UTC)まで一時的に
視程: 3000m
高度1500ftの千切れ雲あり
高度1800ftの雲はほとんどない, 積乱雲.
激しい雷雨, 雨

TAF: NCRG 130517Z 1306/1406 06010KT 9999 -SHRA SCT016 BKN040 OVC100 PROB30 TEMPO 1306/1312 5000 SHRA BKN015 PROB40 TEMPO 1312/1406 3000 TSRA BKN015 FEW018CB

4,000以上の空港の気象観測と天気予報(METAR報とTAF報)

利用可能な観測所は地図上に黄色い丸と赤い丸で示す。

丸の上にカーソルを重ねると観測所名を参照できる。

次にクリックすると気象観測と天気予報を参照できる。

マップの切り替え:黒色「×」印の緑ボタンをクリックして拡大、「-」印の緑ボタンをクリックして縮小、緑色の三角印をクリックして隣りの地図に切り替え


METAR-TAF: